sensor_id;sensor_type;location;lat;lon;timestamp;pressure;altitude;pressure_sealevel;temperature;humidity
51452;BME280;37521;52.020;-1.740;2023-05-16T00:01:35;100817.25;;;5.05;100.00
51452;BME280;37521;52.020;-1.740;2023-05-16T00:04:04;100814.63;;;5.05;100.00
51452;BME280;37521;52.020;-1.740;2023-05-16T00:06:33;100808.56;;;5.00;100.00
51452;BME280;37521;52.020;-1.740;2023-05-16T00:09:02;100811.16;;;5.03;100.00
51452;BME280;37521;52.020;-1.740;2023-05-16T00:11:31;100808.56;;;5.00;100.00
51452;BME280;37521;52.020;-1.740;2023-05-16T00:13:59;100812.09;;;4.97;100.00
51452;BME280;37521;52.020;-1.740;2023-05-16T00:16:28;100811.25;;;4.97;100.00
51452;BME280;37521;52.020;-1.740;2023-05-16T00:18:56;100813.03;;;4.91;100.00
51452;BME280;37521;52.020;-1.740;2023-05-16T00:21:27;100808.69;;;4.87;100.00
51452;BME280;37521;52.020;-1.740;2023-05-16T00:23:55;100800.06;;;4.82;100.00
51452;BME280;37521;52.020;-1.740;2023-05-16T00:26:23;100798.34;;;4.78;100.00
51452;BME280;37521;52.020;-1.740;2023-05-16T00:28:53;100800.09;;;4.76;100.00
51452;BME280;37521;52.020;-1.740;2023-05-16T00:31:22;100798.38;;;4.75;100.00
51452;BME280;37521;52.020;-1.740;2023-05-16T00:33:50;100799.25;;;4.76;100.00
51452;BME280;37521;52.020;-1.740;2023-05-16T00:36:18;100802.72;;;4.73;100.00
51452;BME280;37521;52.020;-1.740;2023-05-16T00:38:49;100808.00;;;4.72;100.00
51452;BME280;37521;52.020;-1.740;2023-05-16T00:41:17;100805.41;;;4.70;100.00
51452;BME280;37521;52.020;-1.740;2023-05-16T00:43:46;100806.28;;;4.69;100.00
51452;BME280;37521;52.020;-1.740;2023-05-16T00:46:16;100800.19;;;4.67;100.00
51452;BME280;37521;52.020;-1.740;2023-05-16T00:48:44;100798.44;;;4.66;100.00
51452;BME280;37521;52.020;-1.740;2023-05-16T00:51:12;100797.59;;;4.64;100.00
51452;BME280;37521;52.020;-1.740;2023-05-16T00:53:40;100792.38;;;4.64;100.00
51452;BME280;37521;52.020;-1.740;2023-05-16T00:56:09;100800.22;;;4.61;100.00
51452;BME280;37521;52.020;-1.740;2023-05-16T00:58:37;100796.78;;;4.59;100.00
51452;BME280;37521;52.020;-1.740;2023-05-16T01:01:05;100792.38;;;4.61;100.00
51452;BME280;37521;52.020;-1.740;2023-05-16T01:03:35;100784.53;;;4.61;100.00
51452;BME280;37521;52.020;-1.740;2023-05-16T01:06:05;100789.75;;;4.64;100.00
51452;BME280;37521;52.020;-1.740;2023-05-16T01:08:33;100794.06;;;4.67;100.00
51452;BME280;37521;52.020;-1.740;2023-05-16T01:11:07;100789.75;;;4.64;100.00
51452;BME280;37521;52.020;-1.740;2023-05-16T01:13:43;100784.53;;;4.61;100.00
51452;BME280;37521;52.020;-1.740;2023-05-16T01:16:19;100783.69;;;4.60;100.00
51452;BME280;37521;52.020;-1.740;2023-05-16T01:18:58;100784.53;;;4.61;100.00
51452;BME280;37521;52.020;-1.740;2023-05-16T01:21:41;100782.81;;;4.60;100.00
51452;BME280;37521;52.020;-1.740;2023-05-16T01:24:13;100788.06;;;4.58;100.00
51452;BME280;37521;52.020;-1.740;2023-05-16T01:26:51;100788.97;;;4.56;100.00
51452;BME280;37521;52.020;-1.740;2023-05-16T01:29:19;100782.91;;;4.51;100.00
51452;BME280;37521;52.020;-1.740;2023-05-16T01:31:47;100787.28;;;4.49;100.00
51452;BME280;37521;52.020;-1.740;2023-05-16T01:34:17;100791.63;;;4.50;100.00
51452;BME280;37521;52.020;-1.740;2023-05-16T01:36:51;100794.25;;;4.47;100.00
51452;BME280;37521;52.020;-1.740;2023-05-16T01:39:28;100789.09;;;4.42;100.00
51452;BME280;37521;52.020;-1.740;2023-05-16T01:42:02;100783.06;;;4.35;100.00
51452;BME280;37521;52.020;-1.740;2023-05-16T01:44:34;100785.69;;;4.31;100.00
51452;BME280;37521;52.020;-1.740;2023-05-16T01:47:08;100789.22;;;4.28;100.00
51452;BME280;37521;52.020;-1.740;2023-05-16T01:49:42;100784.84;;;4.29;100.00
51452;BME280;37521;52.020;-1.740;2023-05-16T01:52:15;100786.59;;;4.28;100.00
51452;BME280;37521;52.020;-1.740;2023-05-16T01:54:47;100781.34;;;4.27;100.00
51452;BME280;37521;52.020;-1.740;2023-05-16T01:57:19;100782.28;;;4.23;100.00
51452;BME280;37521;52.020;-1.740;2023-05-16T01:59:50;100786.63;;;4.24;100.00
51452;BME280;37521;52.020;-1.740;2023-05-16T02:02:18;100784.88;;;4.24;100.00
51452;BME280;37521;52.020;-1.740;2023-05-16T02:04:46;100787.50;;;4.24;100.00
51452;BME280;37521;52.020;-1.740;2023-05-16T02:07:15;100797.09;;;4.22;100.00
51452;BME280;37521;52.020;-1.740;2023-05-16T02:09:44;100789.28;;;4.18;100.00
51452;BME280;37521;52.020;-1.740;2023-05-16T02:12:12;100783.19;;;4.17;100.00
51452;BME280;37521;52.020;-1.740;2023-05-16T02:14:41;100787.56;;;4.15;100.00
51452;BME280;37521;52.020;-1.740;2023-05-16T02:17:10;100787.59;;;4.10;100.00
51452;BME280;37521;52.020;-1.740;2023-05-16T02:19:38;100791.97;;;4.10;100.00
51452;BME280;37521;52.020;-1.740;2023-05-16T02:22:06;100799.81;;;4.10;100.00
51452;BME280;37521;52.020;-1.740;2023-05-16T02:24:35;100802.44;;;4.05;100.00
51452;BME280;37521;52.020;-1.740;2023-05-16T02:27:03;100799.84;;;4.04;100.00
51452;BME280;37521;52.020;-1.740;2023-05-16T02:29:31;100805.94;;;4.03;100.00
51452;BME280;37521;52.020;-1.740;2023-05-16T02:32:01;100805.94;;;4.03;100.00
51452;BME280;37521;52.020;-1.740;2023-05-16T02:34:29;100798.06;;;4.07;100.00
51452;BME280;37521;52.020;-1.740;2023-05-16T02:36:57;100800.69;;;4.06;100.00
51452;BME280;37521;52.020;-1.740;2023-05-16T02:39:25;100802.41;;;4.07;100.00
51452;BME280;37521;52.020;-1.740;2023-05-16T02:41:53;100797.19;;;4.07;100.00
51452;BME280;37521;52.020;-1.740;2023-05-16T02:44:21;100796.34;;;4.08;100.00
51452;BME280;37521;52.020;-1.740;2023-05-16T02:46:49;100800.69;;;4.09;100.00
51452;BME280;37521;52.020;-1.740;2023-05-16T02:49:19;100795.50;;;4.03;100.00
51452;BME280;37521;52.020;-1.740;2023-05-16T02:51:47;100790.31;;;3.97;100.00
51452;BME280;37521;52.020;-1.740;2023-05-16T02:54:15;100792.13;;;3.89;100.00
51452;BME280;37521;52.020;-1.740;2023-05-16T02:56:43;100794.75;;;3.82;100.00
51452;BME280;37521;52.020;-1.740;2023-05-16T02:59:12;100793.03;;;3.78;100.00
51452;BME280;37521;52.020;-1.740;2023-05-16T03:01:40;100791.28;;;3.80;100.00
51452;BME280;37521;52.020;-1.740;2023-05-16T03:04:08;100783.44;;;3.80;100.00
51452;BME280;37521;52.020;-1.740;2023-05-16T03:06:40;100790.34;;;3.91;100.00
51452;BME280;37521;52.020;-1.740;2023-05-16T03:09:09;100785.09;;;3.94;100.00
51452;BME280;37521;52.020;-1.740;2023-05-16T03:11:38;100791.19;;;3.93;100.00
51452;BME280;37521;52.020;-1.740;2023-05-16T03:14:10;100786.84;;;3.92;100.00
51452;BME280;37521;52.020;-1.740;2023-05-16T03:16:40;100781.63;;;3.92;100.00
51452;BME280;37521;52.020;-1.740;2023-05-16T03:19:10;100788.53;;;3.99;100.00
51452;BME280;37521;52.020;-1.740;2023-05-16T03:21:41;100787.69;;;4.01;100.00
51452;BME280;37521;52.020;-1.740;2023-05-16T03:24:11;100791.13;;;4.00;100.00
51452;BME280;37521;52.020;-1.740;2023-05-16T03:26:42;100792.06;;;3.96;100.00
51452;BME280;37521;52.020;-1.740;2023-05-16T03:29:11;100793.81;;;3.96;100.00
51452;BME280;37521;52.020;-1.740;2023-05-16T03:31:39;100781.63;;;3.95;100.00
51452;BME280;37521;52.020;-1.740;2023-05-16T03:34:08;100778.13;;;3.96;100.00
51452;BME280;37521;52.020;-1.740;2023-05-16T03:36:38;100776.38;;;3.96;100.00
51452;BME280;37521;52.020;-1.740;2023-05-16T03:39:07;100778.13;;;3.94;100.00
51452;BME280;37521;52.020;-1.740;2023-05-16T03:41:36;100779.88;;;3.94;100.00
51452;BME280;37521;52.020;-1.740;2023-05-16T03:44:04;100777.22;;;3.98;100.00
51452;BME280;37521;52.020;-1.740;2023-05-16T03:46:32;100778.09;;;4.02;100.00
51452;BME280;37521;52.020;-1.740;2023-05-16T03:49:00;100777.22;;;4.00;100.00
51452;BME280;37521;52.020;-1.740;2023-05-16T03:51:28;100776.38;;;3.98;100.00
51452;BME280;37521;52.020;-1.740;2023-05-16T03:53:57;100773.72;;;3.99;100.00
51452;BME280;37521;52.020;-1.740;2023-05-16T03:56:27;100765.00;;;4.00;100.00
51452;BME280;37521;52.020;-1.740;2023-05-16T03:58:55;100772.88;;;3.99;100.00
51452;BME280;37521;52.020;-1.740;2023-05-16T04:01:24;100768.53;;;3.96;100.00
51452;BME280;37521;52.020;-1.740;2023-05-16T04:03:52;100771.19;;;3.95;100.00
51452;BME280;37521;52.020;-1.740;2023-05-16T04:06:20;100778.13;;;3.96;100.00
51452;BME280;37521;52.020;-1.740;2023-05-16T04:08:49;100771.13;;;3.98;100.00
51452;BME280;37521;52.020;-1.740;2023-05-16T04:11:18;100780.69;;;4.02;100.00
51452;BME280;37521;52.020;-1.740;2023-05-16T04:13:50;100787.63;;;4.04;100.00
51452;BME280;37521;52.020;-1.740;2023-05-16T04:16:20;100787.63;;;4.09;100.00
51452;BME280;37521;52.020;-1.740;2023-05-16T04:18:48;100785.88;;;4.08;100.00
51452;BME280;37521;52.020;-1.740;2023-05-16T04:21:18;100786.78;;;4.04;100.00
51452;BME280;37521;52.020;-1.740;2023-05-16T04:23:47;100788.53;;;3.99;100.00
51452;BME280;37521;52.020;-1.740;2023-05-16T04:26:17;100784.19;;;3.99;100.00
51452;BME280;37521;52.020;-1.740;2023-05-16T04:28:47;100791.16;;;3.99;100.00
51452;BME280;37521;52.020;-1.740;2023-05-16T04:31:18;100786.84;;;3.95;100.00
51452;BME280;37521;52.020;-1.740;2023-05-16T04:33:49;100795.56;;;3.91;100.00
51452;BME280;37521;52.020;-1.740;2023-05-16T04:36:17;100796.47;;;3.90;100.00
51452;BME280;37521;52.020;-1.740;2023-05-16T04:38:46;100806.91;;;3.87;100.00
51452;BME280;37521;52.020;-1.740;2023-05-16T04:41:14;100806.06;;;3.85;100.00
51452;BME280;37521;52.020;-1.740;2023-05-16T04:43:43;100801.72;;;3.82;100.00
51452;BME280;37521;52.020;-1.740;2023-05-16T04:46:11;100807.81;;;3.82;100.00
51452;BME280;37521;52.020;-1.740;2023-05-16T04:48:42;100803.47;;;3.83;100.00
51452;BME280;37521;52.020;-1.740;2023-05-16T04:51:10;100802.56;;;3.86;100.00
51452;BME280;37521;52.020;-1.740;2023-05-16T04:53:39;100799.94;;;3.87;100.00
51452;BME280;37521;52.020;-1.740;2023-05-16T04:56:07;100803.41;;;3.88;100.00
51452;BME280;37521;52.020;-1.740;2023-05-16T04:58:35;100795.56;;;3.88;100.00
51452;BME280;37521;52.020;-1.740;2023-05-16T05:01:03;100804.31;;;3.87;100.00
51452;BME280;37521;52.020;-1.740;2023-05-16T05:03:31;100795.56;;;3.92;100.00
51452;BME280;37521;52.020;-1.740;2023-05-16T05:06:01;100803.38;;;3.94;100.00
51452;BME280;37521;52.020;-1.740;2023-05-16T05:08:29;100799.91;;;3.96;100.00
51452;BME280;37521;52.020;-1.740;2023-05-16T05:10:57;100812.91;;;4.04;100.00
51452;BME280;37521;52.020;-1.740;2023-05-16T05:13:25;100807.63;;;4.12;100.00
51452;BME280;37521;52.020;-1.740;2023-05-16T05:15:53;100812.78;;;4.22;100.00
51452;BME280;37521;52.020;-1.740;2023-05-16T05:18:22;100812.75;;;4.28;100.00
51452;BME280;37521;52.020;-1.740;2023-05-16T05:20:50;100816.16;;;4.33;100.00
51452;BME280;37521;52.020;-1.740;2023-05-16T05:23:20;100810.03;;;4.34;100.00
51452;BME280;37521;52.020;-1.740;2023-05-16T05:25:48;100815.25;;;4.39;100.00
51452;BME280;37521;52.020;-1.740;2023-05-16T05:28:16;100815.25;;;4.42;100.00
51452;BME280;37521;52.020;-1.740;2023-05-16T05:30:44;100819.56;;;4.45;100.00
51452;BME280;37521;52.020;-1.740;2023-05-16T05:33:16;100827.38;;;4.48;100.00
51452;BME280;37521;52.020;-1.740;2023-05-16T05:35:45;100820.38;;;4.51;100.00
51452;BME280;37521;52.020;-1.740;2023-05-16T05:38:13;100829.94;;;4.54;100.00
51452;BME280;37521;52.020;-1.740;2023-05-16T05:40:42;100829.94;;;4.57;100.00
51452;BME280;37521;52.020;-1.740;2023-05-16T05:43:10;100824.59;;;4.66;100.00
51452;BME280;37521;52.020;-1.740;2023-05-16T05:45:38;100836.72;;;4.76;100.00
51452;BME280;37521;52.020;-1.740;2023-05-16T05:48:07;100834.03;;;4.85;100.00
51452;BME280;37521;52.020;-1.740;2023-05-16T05:50:36;100834.78;;;4.97;100.00
51452;BME280;37521;52.020;-1.740;2023-05-16T05:53:05;100843.41;;;5.05;100.00
51452;BME280;37521;52.020;-1.740;2023-05-16T05:55:33;100847.75;;;5.09;100.00
51452;BME280;37521;52.020;-1.740;2023-05-16T05:58:02;100855.56;;;5.12;100.00
51452;BME280;37521;52.020;-1.740;2023-05-16T06:00:33;100854.66;;;5.14;100.00
51452;BME280;37521;52.020;-1.740;2023-05-16T06:03:01;100848.47;;;5.20;100.00
51452;BME280;37521;52.020;-1.740;2023-05-16T06:05:29;100851.03;;;5.26;100.00
51452;BME280;37521;52.020;-1.740;2023-05-16T06:07:57;100857.94;;;5.33;100.00
51452;BME280;37521;52.020;-1.740;2023-05-16T06:10:26;100849.09;;;5.43;100.00
51452;BME280;37521;52.020;-1.740;2023-05-16T06:12:54;100848.09;;;5.54;100.00
51452;BME280;37521;52.020;-1.740;2023-05-16T06:15:23;100850.63;;;5.61;100.00
51452;BME280;37521;52.020;-1.740;2023-05-16T06:17:52;100853.25;;;5.63;100.00
51452;BME280;37521;52.020;-1.740;2023-05-16T06:20:20;100844.50;;;5.64;100.00
51452;BME280;37521;52.020;-1.740;2023-05-16T06:22:48;100848.00;;;5.63;100.00
51452;BME280;37521;52.020;-1.740;2023-05-16T06:25:17;100844.50;;;5.61;100.00
51452;BME280;37521;52.020;-1.740;2023-05-16T06:27:45;100849.72;;;5.64;100.00
51452;BME280;37521;52.020;-1.740;2023-05-16T06:30:13;100846.97;;;5.76;100.00
51452;BME280;37521;52.020;-1.740;2023-05-16T06:32:43;100857.28;;;5.87;100.00
51452;BME280;37521;52.020;-1.740;2023-05-16T06:35:11;100858.97;;;5.94;100.00
51452;BME280;37521;52.020;-1.740;2023-05-16T06:37:39;100863.22;;;6.03;100.00
51452;BME280;37521;52.020;-1.740;2023-05-16T06:40:09;100863.16;;;6.09;100.00
51452;BME280;37521;52.020;-1.740;2023-05-16T06:42:38;100862.25;;;6.08;100.00
51452;BME280;37521;52.020;-1.740;2023-05-16T06:45:07;100860.53;;;6.09;100.00
51452;BME280;37521;52.020;-1.740;2023-05-16T06:47:36;100868.34;;;6.12;100.00
51452;BME280;37521;52.020;-1.740;2023-05-16T06:50:06;100869.16;;;6.15;100.00
51452;BME280;37521;52.020;-1.740;2023-05-16T06:52:36;100869.91;;;6.23;100.00
51452;BME280;37521;52.020;-1.740;2023-05-16T06:55:04;100868.13;;;6.25;100.00
51452;BME280;37521;52.020;-1.740;2023-05-16T06:57:32;100870.63;;;6.33;100.00
51452;BME280;37521;52.020;-1.740;2023-05-16T07:00:00;100868.84;;;6.37;100.00
51452;BME280;37521;52.020;-1.740;2023-05-16T07:02:29;100875.75;;;6.41;100.00
51452;BME280;37521;52.020;-1.740;2023-05-16T07:04:57;100869.63;;;6.43;100.00
51452;BME280;37521;52.020;-1.740;2023-05-16T07:07:27;100880.03;;;6.46;100.00
51452;BME280;37521;52.020;-1.740;2023-05-16T07:09:55;100873.91;;;6.49;100.00
51452;BME280;37521;52.020;-1.740;2023-05-16T07:12:23;100879.03;;;6.57;100.00
51452;BME280;37521;52.020;-1.740;2023-05-16T07:14:52;100883.25;;;6.65;100.00
51452;BME280;37521;52.020;-1.740;2023-05-16T07:17:20;100874.44;;;6.68;100.00
51452;BME280;37521;52.020;-1.740;2023-05-16T07:19:49;100878.75;;;6.73;100.00
51452;BME280;37521;52.020;-1.740;2023-05-16T07:22:17;100880.47;;;6.76;100.00
51452;BME280;37521;52.020;-1.740;2023-05-16T07:24:46;100882.09;;;6.83;100.00
51452;BME280;37521;52.020;-1.740;2023-05-16T07:27:14;100884.72;;;6.83;100.00
51452;BME280;37521;52.020;-1.740;2023-05-16T07:29:42;100884.72;;;6.81;100.00
51452;BME280;37521;52.020;-1.740;2023-05-16T07:32:10;100886.44;;;6.84;100.00
51452;BME280;37521;52.020;-1.740;2023-05-16T07:34:39;100884.63;;;6.89;100.00
51452;BME280;37521;52.020;-1.740;2023-05-16T07:37:07;100888.00;;;6.94;100.00
51452;BME280;37521;52.020;-1.740;2023-05-16T07:39:38;100892.34;;;6.97;100.00
51452;BME280;37521;52.020;-1.740;2023-05-16T07:42:08;100886.09;;;7.04;100.00
51452;BME280;37521;52.020;-1.740;2023-05-16T07:44:36;100885.13;;;7.09;100.00
51452;BME280;37521;52.020;-1.740;2023-05-16T07:47:04;100888.53;;;7.13;100.00
51452;BME280;37521;52.020;-1.740;2023-05-16T07:49:33;100886.75;;;7.15;100.00
51452;BME280;37521;52.020;-1.740;2023-05-16T07:52:01;100889.31;;;7.20;100.00
51452;BME280;37521;52.020;-1.740;2023-05-16T07:54:29;100890.13;;;7.23;100.00
51452;BME280;37521;52.020;-1.740;2023-05-16T07:56:59;100883.91;;;7.29;100.00
51452;BME280;37521;52.020;-1.740;2023-05-16T07:59:28;100896.03;;;7.36;100.00
51452;BME280;37521;52.020;-1.740;2023-05-16T08:01:57;100909.00;;;7.42;100.00
51452;BME280;37521;52.020;-1.740;2023-05-16T08:04:25;100903.72;;;7.45;100.00
51452;BME280;37521;52.020;-1.740;2023-05-16T08:06:53;100894.94;;;7.46;100.00
51452;BME280;37521;52.020;-1.740;2023-05-16T08:09:21;100899.25;;;7.50;100.00
51452;BME280;37521;52.020;-1.740;2023-05-16T08:11:49;100892.84;;;7.63;100.00
51452;BME280;37521;52.020;-1.740;2023-05-16T08:14:17;100894.16;;;7.84;100.00
51452;BME280;37521;52.020;-1.740;2023-05-16T08:16:47;100901.69;;;8.01;100.00
51452;BME280;37521;52.020;-1.740;2023-05-16T08:19:15;100905.31;;;7.97;100.00
51452;BME280;37521;52.020;-1.740;2023-05-16T08:21:43;100898.16;;;8.02;100.00
51452;BME280;37521;52.020;-1.740;2023-05-16T08:24:12;100892.72;;;8.11;100.00
51452;BME280;37521;52.020;-1.740;2023-05-16T08:26:43;100899.53;;;8.20;100.00
51452;BME280;37521;52.020;-1.740;2023-05-16T08:29:11;100901.16;;;8.26;100.00
51452;BME280;37521;52.020;-1.740;2023-05-16T08:31:39;100904.56;;;8.31;100.00
51452;BME280;37521;52.020;-1.740;2023-05-16T08:34:09;100897.56;;;8.30;100.00
51452;BME280;37521;52.020;-1.740;2023-05-16T08:36:37;100899.34;;;8.28;100.00
51452;BME280;37521;52.020;-1.740;2023-05-16T08:39:06;100900.13;;;8.33;100.00
51452;BME280;37521;52.020;-1.740;2023-05-16T08:41:37;100897.38;;;8.39;100.00
51452;BME280;37521;52.020;-1.740;2023-05-16T08:44:06;100895.50;;;8.44;100.00
51452;BME280;37521;52.020;-1.740;2023-05-16T08:46:36;100902.19;;;8.59;100.00
51452;BME280;37521;52.020;-1.740;2023-05-16T08:49:05;100897.53;;;8.68;100.00
51452;BME280;37521;52.020;-1.740;2023-05-16T08:51:37;100896.50;;;8.76;100.00
51452;BME280;37521;52.020;-1.740;2023-05-16T08:54:10;100897.34;;;8.78;100.00
51452;BME280;37521;52.020;-1.740;2023-05-16T08:56:40;100889.19;;;8.87;100.00
51452;BME280;37521;52.020;-1.740;2023-05-16T08:59:09;100897.75;;;8.95;100.00
51452;BME280;37521;52.020;-1.740;2023-05-16T09:01:38;100897.91;;;8.89;100.00
51452;BME280;37521;52.020;-1.740;2023-05-16T09:04:07;100888.88;;;8.99;100.00
51452;BME280;37521;52.020;-1.740;2023-05-16T09:06:37;100886.50;;;9.22;100.00
51452;BME280;37521;52.020;-1.740;2023-05-16T09:09:05;100888.97;;;9.28;100.00
51452;BME280;37521;52.020;-1.740;2023-05-16T09:11:38;100889.47;;;9.43;100.00
51452;BME280;37521;52.020;-1.740;2023-05-16T09:14:06;100885.06;;;9.74;100.00
51452;BME280;37521;52.020;-1.740;2023-05-16T09:16:35;100882.69;;;9.95;100.00
51452;BME280;37521;52.020;-1.740;2023-05-16T09:19:03;100888.84;;;9.95;100.00
51452;BME280;37521;52.020;-1.740;2023-05-16T09:21:32;100889.31;;;9.80;100.00
51452;BME280;37521;52.020;-1.740;2023-05-16T09:24:03;100900.69;;;9.51;100.00
51452;BME280;37521;52.020;-1.740;2023-05-16T09:26:33;100898.28;;;9.42;100.00
51452;BME280;37521;52.020;-1.740;2023-05-16T09:29:09;100883.16;;;9.79;100.00
51452;BME280;37521;52.020;-1.740;2023-05-16T09:31:38;100880.13;;;10.23;100.00
51452;BME280;37521;52.020;-1.740;2023-05-16T09:34:07;100875.72;;;10.51;100.00
51452;BME280;37521;52.020;-1.740;2023-05-16T09:36:37;100876.47;;;10.55;100.00
51452;BME280;37521;52.020;-1.740;2023-05-16T09:39:14;100883.69;;;10.76;100.00
51452;BME280;37521;52.020;-1.740;2023-05-16T09:41:42;100878.09;;;10.59;100.00
51452;BME280;37521;52.020;-1.740;2023-05-16T09:44:11;100889.88;;;10.19;100.00
51452;BME280;37521;52.020;-1.740;2023-05-16T09:46:39;100890.59;;;10.26;100.00
51452;BME280;37521;52.020;-1.740;2023-05-16T09:49:10;100881.56;;;10.33;100.00
51452;BME280;37521;52.020;-1.740;2023-05-16T09:51:39;100881.97;;;10.19;100.00
51452;BME280;37521;52.020;-1.740;2023-05-16T09:54:09;100880.03;;;10.26;100.00
51452;BME280;37521;52.020;-1.740;2023-05-16T09:56:47;100883.00;;;10.71;100.00
51452;BME280;37521;52.020;-1.740;2023-05-16T09:59:16;100887.25;;;10.75;100.00
51452;BME280;37521;52.020;-1.740;2023-05-16T10:01:46;100886.94;;;10.58;100.00
51452;BME280;37521;52.020;-1.740;2023-05-16T10:04:14;100881.13;;;10.47;100.00
51452;BME280;37521;52.020;-1.740;2023-05-16T10:06:42;100882.59;;;10.57;100.00
51452;BME280;37521;52.020;-1.740;2023-05-16T10:09:14;100891.72;;;10.73;100.00
51452;BME280;37521;52.020;-1.740;2023-05-16T10:11:44;100889.78;;;10.52;100.00
51452;BME280;37521;52.020;-1.740;2023-05-16T10:14:16;100886.97;;;10.30;100.00
51452;BME280;37521;52.020;-1.740;2023-05-16T10:16:46;100884.78;;;10.43;100.00
51452;BME280;37521;52.020;-1.740;2023-05-16T10:19:16;100884.78;;;10.96;100.00
51452;BME280;37521;52.020;-1.740;2023-05-16T10:21:50;100882.97;;;11.23;100.00
51452;BME280;37521;52.020;-1.740;2023-05-16T10:24:25;100890.69;;;11.30;100.00
51452;BME280;37521;52.020;-1.740;2023-05-16T10:26:53;100884.94;;;11.17;100.00
51452;BME280;37521;52.020;-1.740;2023-05-16T10:29:21;100881.81;;;11.06;100.00
51452;BME280;37521;52.020;-1.740;2023-05-16T10:31:50;100887.31;;;11.25;100.00
51452;BME280;37521;52.020;-1.740;2023-05-16T10:34:19;100874.91;;;11.27;100.00
51452;BME280;37521;52.020;-1.740;2023-05-16T10:36:48;100882.56;;;11.35;100.00
51452;BME280;37521;52.020;-1.740;2023-05-16T10:39:16;100879.09;;;11.58;100.00
51452;BME280;37521;52.020;-1.740;2023-05-16T10:41:46;100879.09;;;11.58;100.00
51452;BME280;37521;52.020;-1.740;2023-05-16T10:44:16;100883.19;;;11.41;100.00
51452;BME280;37521;52.020;-1.740;2023-05-16T10:46:45;100885.91;;;11.15;100.00
51452;BME280;37521;52.020;-1.740;2023-05-16T10:49:20;100892.25;;;10.84;100.00
51452;BME280;37521;52.020;-1.740;2023-05-16T10:52:08;100890.59;;;10.80;100.00
51452;BME280;37521;52.020;-1.740;2023-05-16T10:54:38;100878.78;;;10.92;100.00
51452;BME280;37521;52.020;-1.740;2023-05-16T10:57:11;100887.94;;;11.07;100.00
51452;BME280;37521;52.020;-1.740;2023-05-16T10:59:43;100889.47;;;11.14;100.00
51452;BME280;37521;52.020;-1.740;2023-05-16T11:02:31;100891.59;;;11.03;100.00
51452;BME280;37521;52.020;-1.740;2023-05-16T11:05:18;100884.72;;;10.99;100.00
51452;BME280;37521;52.020;-1.740;2023-05-16T11:08:01;100879.22;;;11.05;100.00
51452;BME280;37521;52.020;-1.740;2023-05-16T11:10:31;100884.47;;;11.31;100.00
51452;BME280;37521;52.020;-1.740;2023-05-16T11:13:08;100877.91;;;11.41;100.00
51452;BME280;37521;52.020;-1.740;2023-05-16T11:15:36;100885.34;;;11.55;100.00
51452;BME280;37521;52.020;-1.740;2023-05-16T11:18:05;100880.34;;;11.48;100.00
51452;BME280;37521;52.020;-1.740;2023-05-16T11:20:35;100885.03;;;11.39;100.00
51452;BME280;37521;52.020;-1.740;2023-05-16T11:23:23;100874.84;;;11.54;100.00
51452;BME280;37521;52.020;-1.740;2023-05-16T11:25:56;100871.31;;;12.02;100.00
51452;BME280;37521;52.020;-1.740;2023-05-16T11:28:27;100872.00;;;12.28;100.00
51452;BME280;37521;52.020;-1.740;2023-05-16T11:30:57;100877.53;;;12.88;100.00
51452;BME280;37521;52.020;-1.740;2023-05-16T11:33:26;100869.03;;;12.80;94.05
51452;BME280;37521;52.020;-1.740;2023-05-16T11:36:03;100878.91;;;12.33;96.28
51452;BME280;37521;52.020;-1.740;2023-05-16T11:38:35;100872.16;;;12.02;96.78
51452;BME280;37521;52.020;-1.740;2023-05-16T11:41:04;100870.03;;;11.88;95.98
51452;BME280;37521;52.020;-1.740;2023-05-16T11:43:42;100870.22;;;11.84;96.47
51452;BME280;37521;52.020;-1.740;2023-05-16T11:46:11;100873.09;;;11.76;100.00
51452;BME280;37521;52.020;-1.740;2023-05-16T11:48:39;100872.88;;;11.59;100.00
51452;BME280;37521;52.020;-1.740;2023-05-16T11:51:08;100873.00;;;12.03;100.00
51452;BME280;37521;52.020;-1.740;2023-05-16T11:53:36;100870.09;;;12.54;97.79
51452;BME280;37521;52.020;-1.740;2023-05-16T11:56:07;100865.53;;;13.00;91.54
51452;BME280;37521;52.020;-1.740;2023-05-16T11:58:35;100862.75;;;13.25;90.41
51452;BME280;37521;52.020;-1.740;2023-05-16T12:01:05;100864.97;;;13.34;88.02
51452;BME280;37521;52.020;-1.740;2023-05-16T12:03:34;100864.31;;;13.29;89.67
51452;BME280;37521;52.020;-1.740;2023-05-16T12:06:03;100866.91;;;12.88;93.43
51452;BME280;37521;52.020;-1.740;2023-05-16T12:08:31;100886.94;;;12.31;97.52
51452;BME280;37521;52.020;-1.740;2023-05-16T12:11:00;100877.16;;;12.10;99.91
51452;BME280;37521;52.020;-1.740;2023-05-16T12:13:28;100876.91;;;12.16;99.58
51452;BME280;37521;52.020;-1.740;2023-05-16T12:15:56;100873.34;;;12.17;97.04
51452;BME280;37521;52.020;-1.740;2023-05-16T12:18:26;100864.75;;;12.34;100.00
51452;BME280;37521;52.020;-1.740;2023-05-16T12:20:54;100864.88;;;12.31;98.43
51452;BME280;37521;52.020;-1.740;2023-05-16T12:23:25;100860.78;;;12.22;99.67
51452;BME280;37521;52.020;-1.740;2023-05-16T12:25:56;100862.41;;;12.26;99.95
51452;BME280;37521;52.020;-1.740;2023-05-16T12:28:24;100853.88;;;12.62;95.43
51452;BME280;37521;52.020;-1.740;2023-05-16T12:30:52;100847.59;;;13.06;99.44
51452;BME280;37521;52.020;-1.740;2023-05-16T12:33:20;100831.38;;;13.53;95.61
51452;BME280;37521;52.020;-1.740;2023-05-16T12:35:50;100830.41;;;13.94;91.98
51452;BME280;37521;52.020;-1.740;2023-05-16T12:38:20;100837.59;;;13.33;86.23
51452;BME280;37521;52.020;-1.740;2023-05-16T12:40:57;100847.94;;;12.77;89.90
51452;BME280;37521;52.020;-1.740;2023-05-16T12:43:25;100847.56;;;12.66;91.96
51452;BME280;37521;52.020;-1.740;2023-05-16T12:45:55;100853.03;;;12.61;94.26
51452;BME280;37521;52.020;-1.740;2023-05-16T12:48:32;100853.75;;;12.87;94.07
51452;BME280;37521;52.020;-1.740;2023-05-16T12:51:21;100854.84;;;12.81;94.72